createdAt,value
2023-02-17T00:01:16.880Z,21.37
2023-02-17T00:03:48.316Z,23.00
2023-02-17T00:06:21.952Z,26.47
2023-02-17T00:08:50.860Z,22.43
2023-02-17T00:11:19.845Z,22.97
2023-02-17T00:13:48.560Z,20.70
2023-02-17T00:16:19.897Z,21.07
2023-02-17T00:18:54.240Z,20.70
2023-02-17T00:21:24.817Z,20.50
2023-02-17T00:23:53.858Z,21.67
2023-02-17T00:26:23.064Z,21.33
2023-02-17T00:28:52.117Z,21.50
2023-02-17T00:31:22.286Z,24.30
2023-02-17T00:33:52.470Z,22.50
2023-02-17T00:36:22.048Z,26.63
2023-02-17T00:38:50.669Z,20.00
2023-02-17T00:41:20.297Z,21.70
2023-02-17T00:43:49.419Z,22.57
2023-02-17T00:46:18.820Z,24.30
2023-02-17T00:48:48.264Z,28.10
2023-02-17T00:51:18.882Z,23.33
2023-02-17T00:53:47.700Z,19.97
2023-02-17T00:56:16.658Z,21.63
2023-02-17T00:58:46.493Z,22.63
2023-02-17T01:01:15.192Z,20.90
2023-02-17T01:03:44.654Z,23.30
2023-02-17T01:06:23.811Z,21.13
2023-02-17T01:08:52.156Z,23.50
2023-02-17T01:11:23.250Z,24.13
2023-02-17T01:13:51.947Z,19.70
2023-02-17T01:16:48.324Z,21.13
2023-02-17T01:19:19.233Z,21.50
2023-02-17T01:21:50.983Z,22.60
2023-02-17T01:24:19.248Z,20.80
2023-02-17T01:26:47.601Z,24.00
2023-02-17T01:29:16.023Z,19.87
2023-02-17T01:31:45.687Z,21.17
2023-02-17T01:34:14.154Z,21.93
2023-02-17T01:36:42.621Z,19.07
2023-02-17T01:39:15.030Z,20.67
2023-02-17T01:41:44.318Z,20.80
2023-02-17T01:44:17.215Z,21.93
2023-02-17T01:46:47.416Z,20.87
2023-02-17T01:49:30.862Z,28.20
2023-02-17T01:52:05.370Z,19.90
2023-02-17T01:54:39.512Z,21.63
2023-02-17T01:57:11.505Z,21.60
2023-02-17T01:59:40.527Z,20.43
2023-02-17T02:02:10.059Z,22.30
2023-02-17T02:04:40.932Z,19.30
2023-02-17T02:07:15.104Z,18.43
2023-02-17T02:09:48.769Z,20.20
2023-02-17T02:12:22.945Z,26.30
2023-02-17T02:14:52.114Z,21.40
2023-02-17T02:17:30.685Z,19.27
2023-02-17T02:20:28.572Z,22.97
2023-02-17T02:23:11.857Z,22.70
2023-02-17T02:26:01.434Z,16.93
2023-02-17T02:28:42.920Z,19.33
2023-02-17T02:31:26.746Z,21.97
2023-02-17T02:33:58.748Z,17.83
2023-02-17T02:36:30.713Z,21.37
2023-02-17T02:39:02.803Z,19.33
2023-02-17T02:41:35.246Z,19.37
2023-02-17T02:44:05.695Z,20.57
2023-02-17T02:46:35.387Z,19.63
2023-02-17T02:49:06.220Z,20.17
2023-02-17T02:51:45.129Z,19.80
2023-02-17T02:54:29.500Z,19.93
2023-02-17T02:57:07.024Z,18.60
2023-02-17T02:59:45.900Z,19.33
2023-02-17T03:02:19.747Z,17.90
2023-02-17T03:04:53.768Z,17.50
2023-02-17T03:07:25.781Z,16.77
2023-02-17T03:09:55.765Z,16.67
2023-02-17T03:12:24.590Z,17.63
2023-02-17T03:14:55.843Z,16.80
2023-02-17T03:17:24.692Z,18.30
2023-02-17T03:19:54.749Z,19.50
2023-02-17T03:22:26.885Z,18.90
2023-02-17T03:24:55.697Z,17.07
2023-02-17T03:27:24.028Z,17.83
2023-02-17T03:29:52.309Z,18.70
2023-02-17T03:32:21.756Z,18.73
2023-02-17T03:34:50.122Z,18.33
2023-02-17T03:37:19.781Z,19.37
2023-02-17T03:39:48.013Z,21.60
2023-02-17T03:42:16.530Z,17.60
2023-02-17T03:44:44.915Z,18.77
2023-02-17T03:47:13.421Z,18.47
2023-02-17T03:49:42.039Z,21.27
2023-02-17T03:52:11.329Z,18.10
2023-02-17T03:54:41.125Z,21.00
2023-02-17T03:57:09.380Z,19.70
2023-02-17T03:59:38.249Z,18.70
2023-02-17T04:02:06.638Z,17.80
2023-02-17T04:04:36.273Z,18.67
2023-02-17T04:07:04.715Z,18.00
2023-02-17T04:09:32.962Z,18.60
2023-02-17T04:12:03.148Z,19.23
2023-02-17T04:14:31.434Z,19.20
2023-02-17T04:16:59.685Z,20.00
2023-02-17T04:19:28.029Z,18.90
2023-02-17T04:21:56.242Z,19.53
2023-02-17T04:24:24.532Z,18.40
2023-02-17T04:26:52.771Z,19.57
2023-02-17T04:29:22.921Z,18.43
2023-02-17T04:31:51.380Z,19.20
2023-02-17T04:38:41.859Z,17.90
2023-02-17T04:41:34.552Z,18.40
2023-02-17T04:44:02.881Z,17.37
2023-02-17T04:46:32.816Z,17.80
2023-02-17T04:49:01.154Z,17.77
2023-02-17T04:51:30.275Z,17.90
2023-02-17T04:53:58.647Z,17.80
2023-02-17T04:56:27.007Z,19.00
2023-02-17T04:58:55.351Z,19.27
2023-02-17T05:01:23.628Z,18.70
2023-02-17T05:03:53.547Z,18.17
2023-02-17T05:06:22.346Z,17.40
2023-02-17T05:08:50.987Z,18.10
2023-02-17T05:11:19.172Z,22.93
2023-02-17T05:13:47.434Z,17.80
2023-02-17T05:16:15.674Z,19.00
2023-02-17T05:18:43.924Z,20.70
2023-02-17T05:21:13.613Z,17.37
2023-02-17T05:23:42.093Z,17.57
2023-02-17T05:26:11.301Z,19.10
2023-02-17T05:28:39.714Z,17.70
2023-02-17T05:31:08.074Z,17.67
2023-02-17T05:33:36.378Z,19.27
2023-02-17T05:36:06.129Z,18.30
2023-02-17T05:38:36.354Z,18.30
2023-02-17T05:41:05.402Z,18.00
2023-02-17T05:43:34.343Z,18.50
2023-02-17T05:46:03.733Z,20.00
2023-02-17T05:48:32.295Z,17.67
2023-02-17T05:51:00.511Z,17.97
2023-02-17T05:53:28.762Z,21.60
2023-02-17T05:55:58.630Z,17.80
2023-02-17T05:58:27.464Z,19.33
2023-02-17T06:00:55.705Z,18.33
2023-02-17T06:03:24.011Z,17.60
2023-02-17T06:05:52.581Z,18.70
2023-02-17T06:08:20.977Z,17.90
2023-02-17T06:10:49.257Z,19.30
2023-02-17T06:13:19.575Z,18.10
2023-02-17T06:15:48.834Z,21.50
2023-02-17T06:18:17.151Z,18.50
2023-02-17T06:20:45.336Z,18.53
2023-02-17T06:23:13.541Z,18.10
2023-02-17T06:25:41.952Z,18.30
2023-02-17T06:28:10.746Z,17.70
2023-02-17T06:30:40.359Z,17.90
2023-02-17T06:33:08.646Z,17.47
2023-02-17T06:35:36.810Z,18.00
2023-02-17T06:38:05.036Z,24.63
2023-02-17T06:40:33.314Z,18.50
2023-02-17T06:43:01.902Z,17.37
2023-02-17T06:45:30.110Z,17.00
2023-02-17T06:47:59.761Z,19.07
2023-02-17T06:50:28.015Z,18.73
2023-02-17T06:52:56.400Z,18.20
2023-02-17T06:55:24.659Z,17.60
2023-02-17T06:57:52.898Z,17.67
2023-02-17T07:00:22.381Z,21.53
2023-02-17T07:02:50.798Z,19.27
2023-02-17T07:05:20.712Z,19.33
2023-02-17T07:07:49.428Z,17.57
2023-02-17T07:10:17.857Z,18.13
2023-02-17T07:12:46.256Z,18.67
2023-02-17T07:15:15.052Z,17.07
2023-02-17T07:17:43.355Z,17.53
2023-02-17T07:20:12.722Z,19.73
2023-02-17T07:22:42.375Z,18.10
2023-02-17T07:25:11.106Z,18.40
2023-02-17T07:27:39.317Z,19.23
2023-02-17T07:30:08.744Z,17.37
2023-02-17T07:33:02.194Z,17.13
2023-02-17T07:35:30.461Z,17.27
2023-02-17T07:38:00.257Z,17.57
2023-02-17T07:40:29.517Z,18.70
2023-02-17T07:42:58.930Z,18.33
2023-02-17T07:45:27.563Z,16.90
2023-02-17T07:47:55.804Z,19.43
2023-02-17T07:50:24.063Z,17.70
2023-02-17T07:52:52.706Z,18.40
2023-02-17T07:55:22.820Z,19.20
2023-02-17T07:57:51.950Z,17.27
2023-02-17T08:00:20.973Z,17.33
2023-02-17T08:02:49.273Z,17.13
2023-02-17T08:05:17.618Z,17.37
2023-02-17T08:07:45.865Z,18.40
2023-02-17T08:10:31.479Z,17.57
2023-02-17T08:13:19.005Z,17.23
2023-02-17T08:15:47.975Z,17.27
2023-02-17T08:18:16.271Z,17.00
2023-02-17T08:20:45.871Z,18.13
2023-02-17T08:23:14.574Z,17.23
2023-02-17T08:25:43.982Z,18.03
2023-02-17T08:28:14.140Z,18.47
2023-02-17T08:30:42.971Z,17.10
2023-02-17T08:33:11.311Z,18.37
2023-02-17T08:35:39.637Z,17.73
2023-02-17T08:38:07.924Z,17.07
2023-02-17T08:40:36.256Z,17.87
2023-02-17T08:43:04.548Z,18.60
2023-02-17T08:45:36.681Z,16.80
2023-02-17T08:48:05.731Z,17.73
2023-02-17T08:50:34.704Z,17.67
2023-02-17T08:53:03.176Z,18.30
2023-02-17T08:55:43.974Z,18.90
2023-02-17T08:58:16.934Z,17.17
2023-02-17T09:00:46.778Z,16.90
2023-02-17T09:03:15.179Z,16.70
2023-02-17T09:05:43.526Z,17.10
2023-02-17T09:08:11.904Z,18.57
2023-02-17T09:10:40.539Z,18.10
2023-02-17T09:13:09.257Z,16.60
2023-02-17T09:15:37.601Z,19.17
2023-02-17T09:18:07.413Z,15.57
2023-02-17T09:20:36.126Z,17.47
2023-02-17T09:23:04.754Z,16.13
2023-02-17T09:25:33.065Z,16.77
2023-02-17T09:28:01.418Z,18.97
2023-02-17T09:30:30.375Z,16.87
2023-02-17T09:32:59.191Z,16.97
2023-02-17T09:35:29.347Z,20.23
2023-02-17T09:37:57.580Z,16.60
2023-02-17T09:40:39.614Z,23.63
2023-02-17T09:43:09.679Z,17.30
2023-02-17T09:45:38.146Z,17.63
2023-02-17T09:48:09.450Z,16.20
2023-02-17T09:50:44.408Z,16.90
2023-02-17T09:53:17.685Z,18.80
2023-02-17T09:55:49.073Z,16.50
2023-02-17T09:58:20.565Z,15.70
2023-02-17T10:00:51.650Z,19.30
2023-02-17T10:03:22.517Z,17.07
2023-02-17T10:05:56.206Z,16.33
2023-02-17T10:08:28.371Z,16.60
2023-02-17T10:11:03.439Z,16.93
2023-02-17T10:13:33.515Z,20.37
2023-02-17T10:16:06.549Z,17.07
2023-02-17T10:18:38.661Z,19.90
2023-02-17T10:21:13.321Z,21.10
2023-02-17T10:23:41.775Z,19.00
2023-02-17T10:26:19.999Z,17.13
2023-02-17T10:28:53.594Z,17.90
2023-02-17T10:31:29.806Z,15.97
2023-02-17T10:34:03.933Z,16.80
2023-02-17T10:36:41.261Z,13.77
2023-02-17T10:39:14.144Z,16.30
2023-02-17T10:41:43.980Z,15.20
2023-02-17T10:44:15.686Z,14.17
2023-02-17T10:46:44.498Z,15.53
2023-02-17T10:49:20.461Z,17.60
2023-02-17T10:51:50.026Z,14.37
2023-02-17T10:54:43.700Z,16.70
2023-02-17T10:57:14.087Z,18.40
2023-02-17T10:59:44.410Z,17.77
2023-02-17T11:02:19.082Z,16.07
2023-02-17T11:04:49.798Z,16.30
2023-02-17T11:07:21.371Z,14.53
2023-02-17T11:09:51.305Z,15.20
2023-02-17T11:12:23.242Z,16.73
2023-02-17T11:14:53.461Z,15.10
2023-02-17T11:17:25.713Z,15.63
2023-02-17T11:19:59.536Z,16.57
2023-02-17T11:22:37.251Z,15.60
2023-02-17T11:25:08.728Z,16.80
2023-02-17T11:27:37.029Z,22.33
2023-02-17T11:30:11.014Z,15.30
2023-02-17T11:32:39.444Z,22.53
2023-02-17T11:35:22.570Z,14.23
2023-02-17T11:37:52.288Z,14.47
2023-02-17T11:40:29.631Z,19.00
2023-02-17T11:42:59.445Z,15.40
2023-02-17T11:45:30.295Z,13.93
2023-02-17T11:48:22.865Z,14.73
2023-02-17T11:50:54.743Z,14.93
2023-02-17T11:53:30.981Z,13.57
2023-02-17T11:56:08.297Z,15.30
2023-02-17T11:58:47.988Z,13.40
2023-02-17T12:01:23.855Z,13.97
2023-02-17T12:04:16.042Z,11.57
2023-02-17T12:06:49.889Z,15.37
2023-02-17T12:09:25.419Z,14.93
2023-02-17T12:11:59.807Z,13.50
2023-02-17T12:14:45.504Z,13.30
2023-02-17T12:17:17.772Z,12.90
2023-02-17T12:19:51.408Z,12.87
2023-02-17T12:22:20.913Z,12.73
2023-02-17T12:25:04.438Z,12.67
2023-02-17T12:27:40.187Z,13.87
2023-02-17T12:30:20.828Z,13.20
2023-02-17T12:33:00.835Z,20.17
2023-02-17T12:35:34.402Z,13.13
2023-02-17T12:38:10.506Z,13.40
2023-02-17T12:40:41.211Z,14.90
2023-02-17T12:43:20.641Z,15.27
2023-02-17T12:45:49.771Z,12.83
2023-02-17T12:48:26.109Z,14.47
2023-02-17T12:50:58.127Z,12.20
2023-02-17T12:53:35.822Z,14.60
2023-02-17T12:56:09.677Z,14.43
2023-02-17T12:58:37.954Z,14.87
2023-02-17T13:01:09.383Z,12.97
2023-02-17T13:03:37.966Z,13.43
2023-02-17T13:06:21.282Z,12.93
2023-02-17T13:08:53.474Z,13.57
2023-02-17T13:11:29.970Z,12.97
2023-02-17T13:13:59.050Z,17.83
2023-02-17T13:16:28.608Z,14.67
2023-02-17T13:18:57.310Z,14.60
2023-02-17T13:21:29.654Z,12.60
2023-02-17T13:24:02.951Z,13.77
2023-02-17T13:26:34.237Z,14.23
2023-02-17T13:29:12.170Z,13.57
2023-02-17T13:31:49.264Z,14.03
2023-02-17T13:34:33.286Z,13.17
2023-02-17T13:37:03.627Z,14.73
2023-02-17T13:39:34.915Z,13.97
2023-02-17T13:42:05.768Z,14.30
2023-02-17T13:44:35.755Z,12.97
2023-02-17T13:47:14.293Z,13.40
2023-02-17T13:49:42.718Z,12.80
2023-02-17T13:52:18.413Z,13.20
2023-02-17T13:54:53.812Z,12.67
2023-02-17T13:57:27.908Z,13.33
2023-02-17T14:00:07.508Z,14.47
2023-02-17T14:02:45.967Z,15.93
2023-02-17T14:05:19.748Z,13.80
2023-02-17T14:07:48.496Z,13.33
2023-02-17T14:10:20.005Z,13.37
2023-02-17T14:12:50.193Z,13.17
2023-02-17T14:15:19.857Z,12.57
2023-02-17T14:17:48.328Z,13.77
2023-02-17T14:20:30.315Z,13.80
2023-02-17T14:23:06.151Z,14.60
2023-02-17T14:25:36.794Z,14.30
2023-02-17T14:28:19.293Z,13.70
2023-02-17T14:30:47.770Z,15.70
2023-02-17T14:33:24.611Z,14.47
2023-02-17T14:35:54.654Z,15.03
2023-02-17T14:38:24.527Z,15.30
2023-02-17T14:40:53.484Z,13.90
2023-02-17T14:43:26.555Z,13.90
2023-02-17T14:45:54.891Z,13.40
2023-02-17T14:48:23.188Z,14.87
2023-02-17T14:50:54.016Z,15.53
2023-02-17T14:55:58.781Z,13.50
2023-02-17T14:58:29.799Z,14.17
2023-02-17T15:00:59.120Z,14.60
2023-02-17T15:03:27.706Z,15.80
2023-02-17T15:05:56.056Z,14.10
2023-02-17T15:08:30.360Z,13.37
2023-02-17T15:10:58.473Z,17.10
2023-02-17T15:13:28.266Z,17.20
2023-02-17T15:15:56.634Z,13.57
2023-02-17T15:18:27.078Z,13.80
2023-02-17T15:20:56.270Z,13.67
2023-02-17T15:23:25.648Z,14.50
2023-02-17T15:25:55.474Z,16.73
2023-02-17T15:28:23.613Z,14.07
2023-02-17T15:30:54.808Z,14.40
2023-02-17T15:33:24.202Z,13.80
2023-02-17T15:35:54.588Z,13.50
2023-02-17T15:38:23.435Z,15.43
2023-02-17T15:40:52.098Z,15.30
2023-02-17T15:43:21.874Z,29.97
2023-02-17T15:45:50.441Z,16.60
2023-02-17T15:48:23.854Z,14.80
2023-02-17T15:50:52.138Z,14.13
2023-02-17T15:53:20.734Z,15.93
2023-02-17T15:55:49.628Z,15.43
2023-02-17T15:58:19.826Z,13.80
2023-02-17T16:00:49.860Z,16.43
2023-02-17T16:03:27.429Z,15.53
2023-02-17T16:06:01.940Z,15.40
2023-02-17T16:08:33.063Z,14.50
2023-02-17T16:11:09.516Z,13.60
2023-02-17T16:13:41.551Z,14.33
2023-02-17T16:16:16.916Z,14.30
2023-02-17T16:18:47.557Z,15.20
2023-02-17T16:21:16.572Z,13.53
2023-02-17T16:23:45.556Z,16.90
2023-02-17T16:26:17.190Z,13.83
2023-02-17T16:28:45.766Z,17.47
2023-02-17T16:31:14.157Z,12.90
2023-02-17T16:33:44.020Z,15.90
2023-02-17T16:36:15.822Z,16.33
2023-02-17T16:38:44.323Z,14.43
2023-02-17T16:41:14.710Z,16.33
2023-02-17T16:43:43.239Z,13.53
2023-02-17T16:46:20.308Z,13.20
2023-02-17T16:48:48.584Z,15.40
2023-02-17T16:51:18.116Z,17.30
2023-02-17T16:53:46.290Z,13.87
2023-02-17T16:56:17.280Z,15.03
2023-02-17T16:58:45.443Z,15.07
2023-02-17T17:01:14.054Z,14.70
2023-02-17T17:03:43.188Z,14.27
2023-02-17T17:06:21.756Z,15.17
2023-02-17T17:08:50.610Z,17.97
2023-02-17T17:11:20.613Z,16.00
2023-02-17T17:13:49.517Z,15.30
2023-02-17T17:16:21.028Z,13.80
2023-02-17T17:18:53.859Z,15.50
2023-02-17T17:21:23.326Z,17.73
2023-02-17T17:23:51.803Z,16.17
2023-02-17T17:26:24.629Z,15.83
2023-02-17T17:28:53.199Z,17.70
2023-02-17T17:31:22.309Z,18.33
2023-02-17T17:33:51.380Z,14.60
2023-02-17T17:36:28.399Z,14.40
2023-02-17T17:38:57.860Z,14.97
2023-02-17T17:41:28.622Z,15.80
2023-02-17T17:43:57.976Z,17.30
2023-02-17T17:46:28.421Z,16.03
2023-02-17T17:48:58.862Z,16.93
2023-02-17T17:51:30.240Z,16.37
2023-02-17T17:53:58.824Z,14.47
2023-02-17T17:56:29.373Z,15.93
2023-02-17T17:58:58.434Z,14.77
2023-02-17T18:01:26.774Z,15.47
2023-02-17T18:03:55.282Z,17.43
2023-02-17T18:06:26.113Z,19.53
2023-02-17T18:08:58.654Z,14.23
2023-02-17T18:11:26.916Z,15.70
2023-02-17T18:13:59.042Z,16.00
2023-02-17T18:16:28.486Z,16.20
2023-02-17T18:18:58.303Z,15.27
2023-02-17T18:21:26.561Z,16.83
2023-02-17T18:23:56.111Z,16.07
2023-02-17T18:26:24.357Z,15.13
2023-02-17T18:28:52.522Z,15.37
2023-02-17T18:31:20.772Z,15.43
2023-02-17T18:33:49.483Z,15.60
2023-02-17T18:36:20.698Z,18.50
2023-02-17T18:38:48.976Z,16.50
2023-02-17T18:41:22.383Z,15.40
2023-02-17T18:43:51.401Z,17.17
2023-02-17T18:46:20.262Z,14.83
2023-02-17T18:48:48.590Z,15.00
2023-02-17T18:51:19.395Z,15.60
2023-02-17T18:53:49.060Z,15.80
2023-02-17T18:56:22.520Z,15.60
2023-02-17T18:58:52.325Z,16.63
2023-02-17T19:01:23.006Z,15.10
2023-02-17T19:03:52.015Z,17.07
2023-02-17T19:06:22.691Z,14.87
2023-02-17T19:08:52.458Z,17.37
2023-02-17T19:11:23.422Z,16.60
2023-02-17T19:13:53.215Z,15.80
2023-02-17T19:16:24.366Z,18.67
2023-02-17T19:18:53.080Z,17.13
2023-02-17T19:21:22.336Z,14.87
2023-02-17T19:23:51.087Z,16.23
2023-02-17T19:26:20.062Z,16.13
2023-02-17T19:28:49.907Z,15.43
2023-02-17T19:31:20.086Z,15.63
2023-02-17T19:33:48.845Z,17.43
2023-02-17T19:36:19.229Z,16.70
2023-02-17T19:38:48.059Z,15.60
2023-02-17T19:41:17.763Z,14.80
2023-02-17T19:43:46.418Z,15.57
2023-02-17T19:46:18.200Z,15.53
2023-02-17T19:48:46.599Z,15.40
2023-02-17T19:51:14.883Z,14.67
2023-02-17T19:53:44.027Z,16.10
2023-02-17T19:56:14.022Z,16.53
2023-02-17T19:58:43.117Z,17.40
2023-02-17T20:01:13.144Z,19.83
2023-02-17T20:03:43.060Z,15.33
2023-02-17T20:06:13.914Z,13.77
2023-02-17T20:08:42.132Z,16.53
2023-02-17T20:11:11.753Z,15.70
2023-02-17T20:13:46.038Z,15.67
2023-02-17T20:16:16.178Z,14.90
2023-02-17T20:18:47.207Z,17.80
2023-02-17T20:21:17.054Z,16.53
2023-02-17T20:23:45.291Z,17.73
2023-02-17T20:26:15.192Z,21.07
2023-02-17T20:28:43.708Z,17.77
2023-02-17T20:31:12.359Z,14.40
2023-02-17T20:33:41.240Z,18.43
2023-02-17T20:36:11.770Z,15.20
2023-02-17T20:38:40.277Z,22.13
2023-02-17T20:41:10.290Z,16.03
2023-02-17T20:43:38.794Z,16.80
2023-02-17T20:46:07.741Z,14.80
2023-02-17T20:48:36.087Z,14.97
2023-02-17T20:51:05.795Z,18.97
2023-02-17T20:53:35.266Z,21.63
2023-02-17T20:56:03.645Z,15.53
2023-02-17T20:58:31.850Z,15.30
2023-02-17T21:01:00.010Z,17.30
2023-02-17T21:03:28.349Z,16.07
2023-02-17T21:05:56.651Z,16.47
2023-02-17T21:08:24.799Z,14.93
2023-02-17T21:10:54.406Z,16.03
2023-02-17T21:13:23.073Z,16.10
2023-02-17T21:15:51.615Z,15.53
2023-02-17T21:18:20.145Z,14.37
2023-02-17T21:20:48.447Z,19.43
2023-02-17T21:23:16.943Z,13.87
2023-02-17T21:25:46.867Z,15.60
2023-02-17T21:28:17.562Z,14.27
2023-02-17T21:30:47.851Z,14.83
2023-02-17T21:33:16.222Z,16.80
2023-02-17T21:35:44.589Z,14.83
2023-02-17T21:38:15.529Z,14.23
2023-02-17T21:40:44.212Z,14.90
2023-02-17T21:43:32.613Z,13.83
2023-02-17T21:46:02.572Z,18.03
2023-02-17T21:48:30.949Z,14.13
2023-02-17T21:51:05.920Z,15.87
2023-02-17T21:53:34.155Z,14.20
2023-02-17T21:56:02.771Z,14.37
2023-02-17T21:58:31.849Z,15.47
2023-02-17T22:01:00.568Z,15.30
2023-02-17T22:03:30.282Z,13.90
2023-02-17T22:05:58.706Z,15.20
2023-02-17T22:08:27.073Z,15.23
2023-02-17T22:10:55.378Z,15.57
2023-02-17T22:13:23.695Z,13.83
2023-02-17T22:15:58.349Z,14.27
2023-02-17T22:18:26.719Z,15.37
2023-02-17T22:20:56.695Z,15.77
2023-02-17T22:23:24.964Z,15.40
2023-02-17T22:25:54.527Z,17.00
2023-02-17T22:28:22.792Z,16.03
2023-02-17T22:30:54.420Z,14.33
2023-02-17T22:33:22.645Z,13.63
2023-02-17T22:36:00.235Z,15.97
2023-02-17T22:38:28.545Z,15.83
2023-02-17T22:40:57.031Z,15.90
2023-02-17T22:43:25.380Z,14.70
2023-02-17T22:45:59.367Z,14.33
2023-02-17T22:48:27.917Z,12.67
2023-02-17T22:50:56.219Z,14.90
2023-02-17T22:53:26.102Z,13.90
2023-02-17T22:55:55.104Z,14.27
2023-02-17T22:58:24.364Z,15.23
2023-02-17T23:00:52.979Z,14.47
2023-02-17T23:03:40.251Z,12.93
2023-02-17T23:06:11.641Z,16.07
2023-02-17T23:08:41.646Z,13.33
2023-02-17T23:11:11.654Z,17.40
2023-02-17T23:13:40.159Z,15.60
2023-02-17T23:16:11.376Z,13.87
2023-02-17T23:18:39.695Z,14.07
2023-02-17T23:21:09.157Z,13.73
2023-02-17T23:23:37.335Z,13.97
2023-02-17T23:26:07.488Z,14.53
2023-02-17T23:28:35.996Z,14.27
2023-02-17T23:31:04.493Z,14.93
2023-02-17T23:33:32.770Z,15.20
2023-02-17T23:36:00.937Z,16.37
2023-02-17T23:38:29.119Z,14.17
2023-02-17T23:40:57.436Z,13.30
2023-02-17T23:43:27.053Z,14.93
2023-02-17T23:45:56.897Z,14.40
2023-02-17T23:48:25.221Z,14.70
2023-02-17T23:50:57.419Z,14.47
2023-02-17T23:53:25.735Z,15.50
2023-02-17T23:56:02.501Z,15.07
2023-02-17T23:58:32.153Z,13.73
